CheckWX is a tool to help pilots better visualize weather data.  It is not intended as a substitute for an official pre-flight weather briefing.

18:27:53 UTC

CWOB METAR
Brevoort Island Airport
Canada
Current

28 mins ago

CWOB 171800Z AUTO 04036G50KT ////SM //// SCT012 M21/M23 A2953
Observed
Feb-17 @ 18:00 UTC
Wind
  • 040° at 36 KTS
  • Gusting to 50 KTS
Visibility
Cloud Levels
  • Scattered at 1,200' AGL
Temperature
-21°C / -6°F
Dewpoint
-23°C / -9°F
Humidity
84%
Altimeter
29.53" Hg
Pressure
1000.02 hPa
Previous

1 hour ago

CWOB 171712Z AUTO 04036G48KT ////SM //// FEW006 BKN010 M21/M24 A2955
Observed
Feb-17 @ 17:12 UTC
Wind
  • 040° at 36 KTS
  • Gusting to 48 KTS
Visibility
Cloud Levels
  • Few at 600' AGL
  • Broken at 1,000' AGL
Temperature
-21°C / -6°F
Dewpoint
-24°C / -11°F
Humidity
77%
Altimeter
29.55" Hg
Pressure
1000.72 hPa
Previous

2 hours ago

CWOB 171635Z AUTO 03034G44KT ////SM //// SCT006 BKN010 BKN013 M21/M24 A2955
Observed
Feb-17 @ 16:35 UTC
Wind
  • 030° at 34 KTS
  • Gusting to 44 KTS
Visibility
Cloud Levels
  • Scattered at 600' AGL
  • Broken at 1,000' AGL
  • Broken at 1,300' AGL
Temperature
-21°C / -6°F
Dewpoint
-24°C / -11°F
Humidity
77%
Altimeter
29.55" Hg
Pressure
1000.72 hPa